Christian Eliasen 2500m SkiErg

2,500

Meters

11:47.5

Time

2:21.5

Pace

127

Calories

Average Watts124
Calories Per Hour646
Stroke Rate31
Stroke Count367
Drag Factor70

September 05, 2026 15:16:00

Workout
SkiErg

Workout Type
Fixed Distance

Verified
Yes

Entered
ErgData Android

Splits

Time Meters Pace Watts Cal/Hr Cal S/M
11:47.5 2,500 2:21.5 124 646 127 31
0:28.0 100 2:20.0 128 642 5 34
0:27.0 200 2:15.0 142 666 5 33
0:28.1 300 2:20.5 126 640 5 30
0:27.7 400 2:18.5 132 649 5 33
0:27.4 500 2:17.0 136 656 5 35
0:28.2 600 2:21.0 125 638 5 32
0:28.7 700 2:23.5 118 627 5 31
0:28.5 800 2:22.5 121 631 5 34
0:28.7 900 2:23.5 118 627 5 31
0:29.9 1,000 2:29.5 105 602 5 26
0:28.3 1,100 2:21.5 124 636 5 32
0:28.7 1,200 2:23.5 118 627 5 29
0:28.8 1,300 2:24.0 117 625 5 33
0:28.5 1,400 2:22.5 121 631 5 29
0:28.3 1,500 2:21.5 124 636 5 30
0:28.7 1,600 2:23.5 118 627 5 29
0:29.1 1,700 2:25.5 114 618 5 33
0:29.3 1,800 2:26.5 111 614 5 31
0:28.6 1,900 2:23.0 120 629 5 29
0:28.9 2,000 2:24.5 116 622 5 31
0:29.9 2,100 2:29.5 105 602 5 26
0:29.2 2,200 2:26.0 112 616 5 29
0:28.9 2,300 2:24.5 116 622 5 29
0:25.2 2,400 2:06.0 175 857 6 33
0:25.0 2,500 2:05.0 179 864 6 36

Click and drag on the graph to zoom in on a section.

Workout Graph

Loading data.